Time;durP1;ratioP1;P1;durP2;ratioP2;P2;SDS_P1;SDS_P2;PMS_P1;PMS_P2;Temp;Humidity;BMP_temperature;BMP_pressure;BME280_temperature;BME280_humidity;BME280_pressure;Samples;Min_cycle;Max_cycle;Signal;HPM_P1;HPM_P2
2021/03/08 00:00:31;;;;;;;32.67;18.13;;;3.50;99.90;;;;;;4991566;28;20226;-88
2021/03/08 00:02:59;;;;;;;22.55;16.50;;;3.50;99.90;;;;;;4979584;28;20254;-88
2021/03/08 00:05:25;;;;;;;25.50;17.45;;;3.50;99.90;;;;;;4984968;28;20217;-88
2021/03/08 00:07:51;;;;;;;29.55;21.20;;;3.50;99.90;;;;;;4998432;28;20208;-88
2021/03/08 00:10:20;;;;;;;25.80;17.55;;;3.50;99.90;;;;;;4993812;28;20211;-88
2021/03/08 00:12:48;;;;;;;24.48;17.17;;;3.50;99.90;;;;;;4979206;28;20196;-87
2021/03/08 00:15:16;;;;;;;26.33;18.00;;;3.50;99.90;;;;;;4979330;28;20193;-88
2021/03/08 00:17:43;;;;;;;28.00;20.48;;;3.50;99.90;;;;;;4988778;28;20227;-87
2021/03/08 00:20:12;;;;;;;26.40;18.90;;;3.50;99.90;;;;;;4985969;28;20223;-87
2021/03/08 00:22:38;;;;;;;26.95;18.42;;;3.50;99.90;;;;;;4979129;28;20208;-87
2021/03/08 00:25:07;;;;;;;25.85;18.50;;;3.50;99.90;;;;;;4989598;28;20693;-88
2021/03/08 00:27:34;;;;;;;29.02;18.05;;;3.50;99.90;;;;;;4998620;28;20188;-87
2021/03/08 00:30:01;;;;;;;28.77;20.50;;;3.60;99.90;;;;;;4997892;28;20259;-87
2021/03/08 00:32:27;;;;;;;30.80;19.02;;;3.60;99.90;;;;;;4998491;28;20193;-87
2021/03/08 00:34:53;;;;;;;26.40;19.15;;;3.60;99.90;;;;;;4989305;28;20188;-87
2021/03/08 00:37:20;;;;;;;29.40;19.10;;;3.50;99.90;;;;;;4979020;28;20224;-87
2021/03/08 00:39:46;;;;;;;24.65;17.50;;;3.50;99.90;;;;;;4978618;28;20267;-87
2021/03/08 00:42:12;;;;;;;24.50;17.17;;;3.50;99.90;;;;;;4982482;28;20204;-89
2021/03/08 00:44:39;;;;;;;29.48;19.08;;;3.50;99.90;;;;;;4997569;28;20200;-88
2021/03/08 00:47:06;;;;;;;33.78;20.20;;;3.40;99.90;;;;;;4997648;28;20193;-87
2021/03/08 00:49:32;;;;;;;23.15;16.55;;;3.50;99.90;;;;;;4998093;28;20188;-87
2021/03/08 00:51:58;;;;;;;24.63;19.02;;;3.40;99.90;;;;;;4985157;28;20197;-88
2021/03/08 00:54:24;;;;;;;31.48;20.75;;;3.50;99.90;;;;;;4979076;28;20295;-88
2021/03/08 00:56:52;;;;;;;28.67;18.70;;;3.40;99.90;;;;;;4995638;28;20225;-87
2021/03/08 00:59:18;;;;;;;28.42;21.13;;;3.40;99.90;;;;;;4996857;28;20647;-87
2021/03/08 01:01:45;;;;;;;34.70;21.33;;;3.50;99.90;;;;;;4997455;28;20195;-87
2021/03/08 01:04:12;;;;;;;24.40;18.88;;;3.40;99.90;;;;;;4998147;28;20204;-88
2021/03/08 01:06:38;;;;;;;29.02;18.38;;;3.40;99.90;;;;;;4982478;28;20195;-88
2021/03/08 01:09:06;;;;;;;27.45;18.75;;;3.40;99.90;;;;;;4979963;28;20204;-89
2021/03/08 01:11:33;;;;;;;26.48;20.17;;;3.40;99.90;;;;;;5003511;28;20266;-88
2021/03/08 01:13:59;;;;;;;27.73;18.27;;;3.40;99.90;;;;;;5020402;28;20187;-88
2021/03/08 01:16:25;;;;;;;27.67;18.23;;;3.40;99.90;;;;;;5002418;28;20652;-88
2021/03/08 01:18:53;;;;;;;31.95;19.75;;;3.40;99.90;;;;;;4995502;28;20196;-88
2021/03/08 01:21:20;;;;;;;34.70;19.75;;;3.40;99.90;;;;;;4994951;28;20544;-88
2021/03/08 01:23:46;;;;;;;30.25;19.30;;;3.40;99.90;;;;;;4998972;28;20202;-88
2021/03/08 01:26:13;;;;;;;30.40;22.05;;;3.30;99.90;;;;;;4998731;28;20293;-89
2021/03/08 01:28:39;;;;;;;30.40;18.33;;;3.30;99.90;;;;;;4999274;28;20209;-89
2021/03/08 01:31:05;;;;;;;33.00;20.50;;;3.20;99.90;;;;;;4998003;28;20192;-89
2021/03/08 01:33:32;;;;;;;29.92;21.25;;;3.30;99.90;;;;;;4997955;28;20233;-88
2021/03/08 01:35:59;;;;;;;29.63;22.38;;;3.30;99.90;;;;;;4998102;28;20192;-88
2021/03/08 01:38:25;;;;;;;28.25;19.98;;;3.20;99.90;;;;;;4997570;28;20252;-88
2021/03/08 01:40:52;;;;;;;32.67;20.77;;;3.20;99.90;;;;;;4978421;28;20210;-88
2021/03/08 01:43:18;;;;;;;29.45;18.40;;;3.30;99.90;;;;;;4980400;28;20211;-88
2021/03/08 01:45:45;;;;;;;31.48;20.75;;;3.20;99.90;;;;;;4997841;28;20197;-88
2021/03/08 01:48:11;;;;;;;29.58;20.60;;;3.30;99.90;;;;;;5001005;28;20196;-88
2021/03/08 01:50:41;;;;;;;32.60;22.63;;;3.30;99.90;;;;;;4997858;28;20210;-88
2021/03/08 01:53:10;;;;;;;34.15;22.08;;;3.30;99.90;;;;;;4997170;28;20195;-88
2021/03/08 01:55:37;;;;;;;29.20;20.10;;;3.30;99.90;;;;;;4998448;28;20207;-88
2021/03/08 01:58:03;;;;;;;29.80;20.45;;;3.30;99.90;;;;;;4997570;28;20221;-88
2021/03/08 02:00:31;;;;;;;38.92;24.48;;;3.30;99.90;;;;;;4978326;28;20233;-88
2021/03/08 02:02:58;;;;;;;32.33;21.58;;;3.30;99.90;;;;;;4993872;28;20199;-88
2021/03/08 02:05:27;;;;;;;33.10;22.67;;;3.30;99.90;;;;;;4997434;28;20287;-88
2021/03/08 02:07:54;;;;;;;32.33;22.75;;;3.20;99.90;;;;;;4982577;28;20192;-88
2021/03/08 02:10:21;;;;;;;34.70;21.40;;;3.20;99.90;;;;;;4978121;28;20201;-88
2021/03/08 02:13:06;;;;;;;32.33;23.25;;;3.20;99.90;;;;;;4978312;28;20193;-88
2021/03/08 02:15:43;;;;;;;32.88;22.08;;;3.10;99.90;;;;;;4977753;28;20208;-87
2021/03/08 02:18:18;;;;;;;34.55;22.80;;;3.10;99.90;;;;;;4978131;28;20285;-89
2021/03/08 02:20:52;;;;;;;33.10;23.83;;;3.10;99.90;;;;;;4978162;28;20201;-88
2021/03/08 02:24:04;;;;;;;31.23;21.45;;;3.10;99.90;;;;;;4978263;28;20208;-88
2021/03/08 02:26:41;;;;;;;34.22;24.05;;;3.10;99.90;;;;;;4979675;28;20196;-88
2021/03/08 02:29:35;;;;;;;32.53;20.35;;;3.10;99.90;;;;;;5000625;28;20226;-88
2021/03/08 02:32:07;;;;;;;34.78;23.58;;;3.10;99.90;;;;;;5011822;28;20202;-88
2021/03/08 02:34:39;;;;;;;30.88;22.35;;;3.10;99.90;;;;;;4985659;28;20196;-88
2021/03/08 02:37:11;;;;;;;31.85;20.92;;;3.10;99.90;;;;;;4977491;28;20581;-88
2021/03/08 02:39:41;;;;;;;33.50;22.50;;;3.10;99.90;;;;;;4991182;28;20204;-88
2021/03/08 02:42:11;;;;;;;29.77;20.42;;;3.10;99.90;;;;;;4996693;28;20196;-88
2021/03/08 02:44:39;;;;;;;45.13;24.08;;;3.00;99.90;;;;;;4983184;28;20195;-89
2021/03/08 02:47:10;;;;;;;34.22;22.65;;;3.10;99.90;;;;;;4976193;28;20264;-89
2021/03/08 02:49:39;;;;;;;36.60;22.45;;;3.10;99.90;;;;;;4987308;28;20194;-88
2021/03/08 02:52:09;;;;;;;36.60;22.95;;;3.10;99.90;;;;;;4995337;28;20557;-88
2021/03/08 02:54:39;;;;;;;30.73;19.70;;;3.10;99.90;;;;;;4984248;28;20553;-89
2021/03/08 02:57:08;;;;;;;27.20;20.50;;;3.10;99.90;;;;;;4976123;28;20546;-89
2021/03/08 02:59:39;;;;;;;36.83;23.10;;;3.10;99.90;;;;;;4978049;28;20215;-88
2021/03/08 03:02:08;;;;;;;31.23;22.67;;;3.10;99.90;;;;;;4976220;28;20651;-88
2021/03/08 03:04:37;;;;;;;36.75;21.83;;;3.10;99.90;;;;;;4994272;28;20240;-88
2021/03/08 03:07:05;;;;;;;32.65;22.52;;;3.10;99.90;;;;;;4995495;28;20209;-88
2021/03/08 03:09:33;;;;;;;35.92;23.88;;;3.10;99.90;;;;;;4977746;28;20193;-89
2021/03/08 03:12:01;;;;;;;33.42;23.20;;;3.10;99.90;;;;;;4975970;28;20227;-88
2021/03/08 03:14:28;;;;;;;35.78;24.08;;;3.00;99.90;;;;;;4991737;28;20285;-88
2021/03/08 03:16:59;;;;;;;36.92;24.08;;;3.00;99.90;;;;;;4995253;28;20571;-88
2021/03/08 03:19:27;;;;;;;41.75;23.58;;;3.00;99.90;;;;;;4979864;28;20298;-88
2021/03/08 03:21:58;;;;;;;45.40;25.30;;;3.00;99.90;;;;;;4975452;28;20243;-89
2021/03/08 03:24:25;;;;;;;32.97;23.58;;;3.00;99.90;;;;;;4989983;28;20194;-89
2021/03/08 03:26:52;;;;;;;32.03;22.02;;;3.00;99.90;;;;;;4995165;28;20214;-88
2021/03/08 03:29:20;;;;;;;38.00;24.92;;;3.00;99.90;;;;;;4984860;28;20255;-88
2021/03/08 03:31:47;;;;;;;34.40;24.17;;;3.00;99.90;;;;;;4975712;28;20201;-88
2021/03/08 03:34:14;;;;;;;33.53;23.00;;;3.00;99.90;;;;;;4976384;28;20196;-88
2021/03/08 03:36:45;;;;;;;36.20;23.58;;;3.00;99.90;;;;;;4976202;28;20203;-86
2021/03/08 03:39:12;;;;;;;35.92;24.92;;;2.90;99.90;;;;;;4987046;28;20202;-87
2021/03/08 03:41:39;;;;;;;35.28;22.75;;;2.90;99.90;;;;;;4995779;28;20716;-87
2021/03/08 03:44:07;;;;;;;38.17;25.45;;;2.90;99.90;;;;;;4998681;28;20200;-87
2021/03/08 03:46:37;;;;;;;33.17;24.27;;;2.90;99.90;;;;;;4993054;28;20192;-86
2021/03/08 03:49:03;;;;;;;41.17;25.67;;;3.00;99.90;;;;;;4985650;28;20195;-89
2021/03/08 03:51:30;;;;;;;33.15;23.17;;;2.90;99.90;;;;;;4994563;28;20192;-89
2021/03/08 03:53:57;;;;;;;37.75;24.90;;;3.00;99.90;;;;;;4993569;28;20204;-89
2021/03/08 03:56:29;;;;;;;37.25;24.52;;;3.00;99.90;;;;;;4994312;28;20207;-89
2021/03/08 03:59:01;;;;;;;54.35;24.27;;;3.00;99.90;;;;;;4995553;28;20238;-89
2021/03/08 04:01:34;;;;;;;33.72;24.13;;;3.00;99.90;;;;;;4995159;28;20194;-89
2021/03/08 04:04:04;;;;;;;41.30;25.35;;;2.90;99.90;;;;;;4975870;28;20196;-89
2021/03/08 04:06:34;;;;;;;34.90;24.35;;;3.00;99.90;;;;;;4975464;28;20203;-89
2021/03/08 04:09:04;;;;;;;37.80;23.50;;;3.00;99.90;;;;;;4975734;28;20192;-89
2021/03/08 04:11:33;;;;;;;37.92;24.30;;;3.10;99.90;;;;;;4975365;28;20561;-88
2021/03/08 04:14:02;;;;;;;31.88;21.85;;;3.00;99.90;;;;;;4993904;28;20205;-89
2021/03/08 04:16:30;;;;;;;41.17;23.30;;;3.10;99.90;;;;;;4993201;28;20200;-87
2021/03/08 04:18:57;;;;;;;38.35;25.40;;;3.00;99.90;;;;;;4994002;28;20224;-87
2021/03/08 04:21:24;;;;;;;39.78;24.70;;;3.00;99.90;;;;;;4994738;28;20196;-87
2021/03/08 04:23:51;;;;;;;36.03;23.35;;;3.00;99.90;;;;;;4977073;28;20317;-87
2021/03/08 04:26:20;;;;;;;36.20;24.23;;;3.00;99.90;;;;;;4989644;28;20199;-86
2021/03/08 04:28:47;;;;;;;35.53;25.60;;;3.00;99.90;;;;;;4994227;28;20219;-89
2021/03/08 04:31:14;;;;;;;38.53;26.67;;;3.10;99.90;;;;;;4980840;28;20246;-89
2021/03/08 04:33:43;;;;;;;32.55;24.38;;;3.00;99.90;;;;;;4975363;28;20204;-89
2021/03/08 04:36:11;;;;;;;35.78;24.40;;;3.10;99.90;;;;;;4991563;28;20205;-89
2021/03/08 04:38:41;;;;;;;39.17;26.42;;;3.00;99.90;;;;;;4998049;28;20227;-88
2021/03/08 04:41:09;;;;;;;43.13;26.75;;;3.00;99.90;;;;;;4986412;28;20196;-88
2021/03/08 04:43:38;;;;;;;32.67;25.02;;;3.00;99.90;;;;;;4978592;28;20235;-89
2021/03/08 04:46:05;;;;;;;33.08;24.20;;;3.00;99.90;;;;;;4987754;28;20643;-89
2021/03/08 04:48:34;;;;;;;40.10;26.13;;;3.00;99.90;;;;;;4997898;28;20636;-89
2021/03/08 04:51:04;;;;;;;43.30;26.10;;;3.00;99.90;;;;;;4996884;28;20645;-89
2021/03/08 04:53:30;;;;;;;37.72;25.80;;;2.90;99.90;;;;;;4985601;28;20238;-88
2021/03/08 04:55:58;;;;;;;39.08;26.17;;;3.00;99.90;;;;;;4985989;28;20193;-89
2021/03/08 04:58:24;;;;;;;42.95;27.52;;;3.00;99.90;;;;;;4997659;28;20231;-88
2021/03/08 05:00:55;;;;;;;46.75;26.38;;;3.00;99.90;;;;;;4991481;28;20189;-88
2021/03/08 05:03:24;;;;;;;39.10;24.58;;;3.00;99.90;;;;;;4983888;28;20220;-89
2021/03/08 05:05:52;;;;;;;41.55;27.67;;;3.00;99.90;;;;;;4973423;28;20195;-89
2021/03/08 05:08:20;;;;;;;41.05;26.17;;;3.00;99.90;;;;;;5003472;28;20262;-88
2021/03/08 05:10:50;;;;;;;36.40;26.83;;;3.00;99.90;;;;;;4998283;28;20585;-88
2021/03/08 05:13:18;;;;;;;38.75;26.65;;;3.00;99.90;;;;;;4985005;28;20215;-88
2021/03/08 05:15:45;;;;;;;45.25;27.35;;;3.00;99.90;;;;;;4985050;28;20189;-88
2021/03/08 05:18:13;;;;;;;37.05;25.10;;;3.00;99.90;;;;;;5001308;28;20220;-88
2021/03/08 05:20:40;;;;;;;38.33;26.55;;;3.00;99.90;;;;;;4986765;28;20210;-88
2021/03/08 05:23:08;;;;;;;46.15;27.50;;;3.10;99.90;;;;;;4987076;28;20205;-88
2021/03/08 05:25:35;;;;;;;39.10;26.17;;;3.10;99.90;;;;;;4985931;28;20194;-88
2021/03/08 05:28:05;;;;;;;38.30;26.80;;;3.00;99.90;;;;;;4997651;28;20279;-88
2021/03/08 05:30:31;;;;;;;39.70;25.92;;;3.10;99.90;;;;;;4968173;28;20199;-88
2021/03/08 05:33:03;;;;;;;44.70;27.67;;;3.20;99.90;;;;;;5002887;28;20195;-88
2021/03/08 05:35:31;;;;;;;41.38;26.35;;;3.20;99.90;;;;;;4984369;28;20199;-88
2021/03/08 05:38:00;;;;;;;36.80;24.85;;;3.10;99.90;;;;;;5002054;28;20216;-88
2021/03/08 05:40:30;;;;;;;40.70;27.40;;;3.10;99.90;;;;;;5001843;28;20203;-88
2021/03/08 05:43:02;;;;;;;39.75;27.85;;;3.20;99.90;;;;;;4982837;28;20196;-88
2021/03/08 05:45:33;;;;;;;38.78;26.23;;;3.20;99.90;;;;;;4982153;28;20229;-88
2021/03/08 05:48:35;;;;;;;37.00;24.65;;;3.20;99.90;;;;;;5000856;28;20655;-88
2021/03/08 05:51:41;;;;;;;43.03;30.50;;;3.20;99.90;;;;;;4981189;28;20620;-88
2021/03/08 05:54:23;;;;;;;45.67;28.60;;;3.30;99.90;;;;;;4989225;28;20203;-87
2021/03/08 05:57:26;;;;;;;39.03;28.15;;;3.20;99.90;;;;;;5004334;28;20202;-91
2021/03/08 06:00:18;;;;;;;44.72;28.70;;;3.20;99.90;;;;;;4972084;28;20234;-93
2021/03/08 06:02:54;;;;;;;43.13;28.48;;;3.20;99.90;;;;;;4993329;28;20200;-92
2021/03/08 06:05:50;;;;;;;41.88;26.45;;;3.30;99.90;;;;;;5009453;28;20195;-94
2021/03/08 06:08:55;;;;;;;44.28;26.98;;;3.30;99.90;;;;;;5010254;28;20279;-92
2021/03/08 06:11:27;;;;;;;46.13;27.17;;;3.30;99.90;;;;;;4953058;28;20196;-93
2021/03/08 06:14:00;;;;;;;41.20;28.40;;;3.30;99.90;;;;;;4996735;28;20183;-93
2021/03/08 06:16:34;;;;;;;47.33;26.70;;;3.40;99.90;;;;;;5013029;28;20202;-93
2021/03/08 06:19:03;;;;;;;40.90;28.80;;;3.40;99.90;;;;;;5018139;28;20224;-93
2021/03/08 06:21:34;;;;;;;43.10;26.60;;;3.30;99.90;;;;;;5016890;28;20216;-92
2021/03/08 06:24:04;;;;;;;41.35;27.55;;;3.30;99.90;;;;;;5016100;28;20275;-92
2021/03/08 06:26:33;;;;;;;40.08;28.35;;;3.40;99.90;;;;;;5011595;28;20205;-93
2021/03/08 06:29:00;;;;;;;42.15;28.60;;;3.30;99.90;;;;;;4990453;28;20217;-92
2021/03/08 06:31:27;;;;;;;41.50;30.02;;;3.40;99.90;;;;;;4986583;28;20201;-93
2021/03/08 06:33:54;;;;;;;39.60;28.48;;;3.40;99.90;;;;;;5006300;28;20219;-92
2021/03/08 06:36:21;;;;;;;46.63;31.05;;;3.30;99.90;;;;;;5002225;28;20279;-93
2021/03/08 06:38:49;;;;;;;45.15;29.60;;;3.30;99.90;;;;;;5005611;28;20239;-93
2021/03/08 06:41:16;;;;;;;45.35;29.90;;;3.30;99.90;;;;;;4998836;28;20197;-93
2021/03/08 06:43:44;;;;;;;54.20;30.30;;;3.30;99.90;;;;;;4999106;28;20260;-92
2021/03/08 06:46:14;;;;;;;43.15;28.92;;;3.30;99.90;;;;;;5002569;28;20195;-92
2021/03/08 06:48:41;;;;;;;39.95;26.90;;;3.30;99.90;;;;;;4990472;28;20204;-92
2021/03/08 06:51:13;;;;;;;43.70;30.83;;;3.20;99.90;;;;;;4998832;28;20222;-92
2021/03/08 06:53:41;;;;;;;43.30;29.23;;;3.00;99.90;;;;;;4999528;28;20202;-90
2021/03/08 06:56:16;;;;;;;48.55;31.75;;;2.70;99.90;;;;;;4997776;28;20542;-90
2021/03/08 06:58:46;;;;;;;56.50;35.13;;;2.60;99.90;;;;;;5000167;28;20262;-92
2021/03/08 07:01:31;;;;;;;55.05;34.50;;;2.50;99.90;;;;;;4985820;28;20195;-93
2021/03/08 07:04:04;;;;;;;59.75;37.13;;;2.40;99.90;;;;;;4997829;28;20192;-93
2021/03/08 07:06:33;;;;;;;52.05;37.40;;;2.40;99.90;;;;;;5014052;28;20225;-93
2021/03/08 07:09:08;;;;;;;59.38;37.30;;;2.40;99.90;;;;;;5006239;28;20202;-91
2021/03/08 07:11:34;;;;;;;66.13;37.60;;;2.40;99.90;;;;;;4999457;28;20193;-91
2021/03/08 07:14:03;;;;;;;58.97;36.67;;;2.40;99.90;;;;;;4990351;28;20255;-92
2021/03/08 07:16:38;;;;;;;56.25;35.65;;;2.40;99.90;;;;;;4985601;28;20202;-91
2021/03/08 07:19:07;;;;;;;61.90;39.15;;;2.40;99.90;;;;;;4984083;28;20239;-92
2021/03/08 07:21:34;;;;;;;60.28;39.45;;;2.40;99.90;;;;;;4983796;28;20203;-91
2021/03/08 07:24:10;;;;;;;56.08;36.65;;;2.50;99.90;;;;;;4995294;28;20228;-91
2021/03/08 07:26:38;;;;;;;52.17;34.15;;;2.50;99.90;;;;;;4990636;28;20202;-92
2021/03/08 07:29:10;;;;;;;66.32;34.95;;;2.40;99.90;;;;;;4991108;28;20241;-92
2021/03/08 07:31:37;;;;;;;51.97;33.70;;;2.50;99.90;;;;;;5005793;28;20221;-93
2021/03/08 07:34:05;;;;;;;58.05;36.38;;;2.50;99.90;;;;;;5004695;28;20681;-93
2021/03/08 07:36:32;;;;;;;54.80;38.10;;;2.40;99.90;;;;;;5003656;28;20212;-91
2021/03/08 07:39:08;;;;;;;49.78;33.58;;;2.50;99.90;;;;;;5004410;28;20261;-92
2021/03/08 07:41:34;;;;;;;59.38;34.88;;;2.50;99.90;;;;;;5008212;28;20198;-91
2021/03/08 07:44:07;;;;;;;56.10;36.13;;;2.50;99.90;;;;;;5010197;28;20639;-92
2021/03/08 07:46:37;;;;;;;61.53;38.45;;;2.50;99.90;;;;;;5010059;28;20209;-91
2021/03/08 07:49:06;;;;;;;61.28;38.42;;;2.50;99.90;;;;;;5018003;28;20175;-92
2021/03/08 07:51:33;;;;;;;64.75;39.30;;;2.50;99.90;;;;;;5018496;28;20205;-92
2021/03/08 07:54:01;;;;;;;60.40;40.83;;;2.60;99.90;;;;;;5018392;28;20224;-91
2021/03/08 07:56:28;;;;;;;68.65;41.08;;;2.70;99.90;;;;;;5017623;28;20182;-91
2021/03/08 07:58:56;;;;;;;65.38;38.63;;;2.70;99.90;;;;;;5017321;28;20272;-91
2021/03/08 08:01:24;;;;;;;62.92;39.13;;;2.70;99.90;;;;;;5014449;28;20203;-91
2021/03/08 08:03:53;;;;;;;60.92;40.03;;;2.70;99.90;;;;;;5005697;28;20225;-91
2021/03/08 08:06:20;;;;;;;65.00;41.45;;;2.80;99.90;;;;;;5002835;28;20270;-91
2021/03/08 08:08:50;;;;;;;64.22;42.60;;;2.80;99.90;;;;;;5005559;28;20638;-90
2021/03/08 08:11:19;;;;;;;57.97;38.58;;;2.80;99.90;;;;;;5006733;28;20286;-91
2021/03/08 08:13:48;;;;;;;63.83;42.45;;;2.80;99.90;;;;;;4994324;28;20592;-91
2021/03/08 08:16:16;;;;;;;65.95;38.92;;;2.80;99.90;;;;;;4985901;28;20609;-92
2021/03/08 08:18:45;;;;;;;65.53;39.92;;;2.80;99.90;;;;;;4987002;28;20237;-90
2021/03/08 08:21:14;;;;;;;66.53;42.63;;;2.80;99.90;;;;;;4985990;28;20628;-77
2021/03/08 08:23:43;;;;;;;77.18;42.35;;;2.90;99.90;;;;;;4978276;28;20192;-77
2021/03/08 08:26:13;;;;;;;71.28;44.88;;;3.00;99.90;;;;;;4978193;28;20192;-77
2021/03/08 08:28:43;;;;;;;76.35;47.80;;;3.00;99.90;;;;;;4979941;28;20211;-77
2021/03/08 08:31:09;;;;;;;92.30;50.72;;;3.00;99.90;;;;;;4978242;28;20203;-76
2021/03/08 08:33:35;;;;;;;71.88;46.65;;;3.10;99.90;;;;;;4977690;28;20214;-76
2021/03/08 08:36:14;;;;;;;70.05;46.90;;;3.10;99.90;;;;;;4978090;28;20203;-75
2021/03/08 08:38:41;;;;;;;74.93;46.83;;;3.10;99.90;;;;;;4977679;28;20219;-75
2021/03/08 08:41:19;;;;;;;74.30;45.88;;;3.20;99.90;;;;;;4977805;28;20197;-76
2021/03/08 08:43:45;;;;;;;74.63;48.05;;;3.20;99.90;;;;;;4978136;28;20274;-75
2021/03/08 08:46:26;;;;;;;84.07;51.35;;;3.10;99.90;;;;;;4992666;28;20194;-78
2021/03/08 08:49:11;;;;;;;83.40;52.25;;;3.00;99.90;;;;;;4997457;28;20191;-78
2021/03/08 08:51:53;;;;;;;88.97;51.30;;;3.10;99.90;;;;;;4997292;28;20247;-77
2021/03/08 08:54:53;;;;;;;83.80;48.70;;;3.10;99.90;;;;;;4994596;28;20203;-78
2021/03/08 08:57:20;;;;;;;96.85;54.15;;;3.10;99.90;;;;;;4995381;28;20187;-77
2021/03/08 08:59:50;;;;;;;91.32;56.25;;;3.10;99.90;;;;;;4992150;28;20254;-77
2021/03/08 09:02:32;;;;;;;92.25;52.80;;;3.10;99.90;;;;;;4996665;28;20195;-77
2021/03/08 09:04:59;;;;;;;88.72;52.65;;;3.20;99.90;;;;;;4982444;28;20232;-78
2021/03/08 09:07:27;;;;;;;99.18;54.58;;;3.20;99.90;;;;;;4976996;28;20201;-78
2021/03/08 09:09:55;;;;;;;90.03;51.47;;;3.30;99.90;;;;;;4989328;28;20193;-78
2021/03/08 09:12:32;;;;;;;128.52;60.05;;;3.40;99.90;;;;;;4977297;28;20250;-78
2021/03/08 09:15:00;;;;;;;114.05;60.67;;;3.40;99.90;;;;;;4978574;28;20193;-78
2021/03/08 09:17:28;;;;;;;100.22;58.03;;;3.40;99.90;;;;;;4977381;28;20203;-77
2021/03/08 09:20:24;;;;;;;115.05;59.42;;;3.40;99.90;;;;;;4989397;28;20206;-76
2021/03/08 09:22:52;;;;;;;122.93;67.47;;;3.40;99.90;;;;;;4977085;28;20193;-77
2021/03/08 09:25:23;;;;;;;127.88;65.22;;;3.40;99.90;;;;;;4983130;28;20283;-77
2021/03/08 09:27:50;;;;;;;131.05;69.85;;;3.40;99.90;;;;;;4978946;28;20199;-76
2021/03/08 09:30:19;;;;;;;129.88;67.65;;;3.50;99.90;;;;;;4992694;28;20197;-77
2021/03/08 09:32:54;;;;;;;136.80;70.40;;;3.50;99.90;;;;;;4980805;28;20237;-77
2021/03/08 09:35:21;;;;;;;140.18;70.60;;;3.40;99.90;;;;;;4992105;28;20525;-77
2021/03/08 09:37:49;;;;;;;123.75;65.68;;;3.50;99.90;;;;;;4996451;28;20221;-78
2021/03/08 09:40:19;;;;;;;127.90;70.30;;;3.60;99.90;;;;;;4982069;28;20205;-78
2021/03/08 09:42:45;;;;;;;130.02;69.22;;;3.70;99.90;;;;;;4982051;28;20197;-77
2021/03/08 09:45:16;;;;;;;147.73;71.88;;;3.70;99.90;;;;;;4983219;28;20190;-77
2021/03/08 09:47:43;;;;;;;161.40;72.97;;;3.70;99.90;;;;;;4978581;28;20220;-77
2021/03/08 09:50:16;;;;;;;148.82;73.53;;;3.70;99.90;;;;;;4996075;28;20189;-77
2021/03/08 09:52:44;;;;;;;139.55;71.28;;;3.70;99.90;;;;;;4995651;28;20197;-77
2021/03/08 09:55:14;;;;;;;131.52;65.85;;;3.80;99.90;;;;;;4995009;28;20189;-77
2021/03/08 09:57:43;;;;;;;113.68;62.70;;;3.80;99.90;;;;;;4983377;28;20317;-80
2021/03/08 10:00:11;;;;;;;167.38;77.45;;;3.90;99.90;;;;;;4995542;28;20278;-80
2021/03/08 10:02:38;;;;;;;156.65;79.78;;;3.80;99.90;;;;;;4995770;28;20193;-79
2021/03/08 10:05:06;;;;;;;153.02;79.30;;;3.80;99.90;;;;;;4976404;28;20216;-80
2021/03/08 10:07:32;;;;;;;148.48;75.97;;;3.90;99.90;;;;;;4976779;28;20198;-79
2021/03/08 10:10:12;;;;;;;149.93;73.68;;;3.90;99.90;;;;;;4977672;28;20212;-80
2021/03/08 10:12:38;;;;;;;154.77;70.80;;;3.90;99.90;;;;;;4976789;28;20204;-79
2021/03/08 10:15:08;;;;;;;142.40;72.85;;;3.90;99.90;;;;;;4994939;28;20196;-80
2021/03/08 10:17:34;;;;;;;138.07;65.78;;;4.00;99.90;;;;;;4995158;28;20221;-79
2021/03/08 10:20:05;;;;;;;147.02;75.45;;;4.00;99.90;;;;;;4995789;28;20201;-78
2021/03/08 10:22:35;;;;;;;122.15;60.13;;;4.10;99.90;;;;;;4994057;28;20197;-78
2021/03/08 10:25:02;;;;;;;111.65;64.82;;;4.20;99.90;;;;;;4995567;28;20196;-78
2021/03/08 10:27:31;;;;;;;127.63;70.25;;;4.30;99.90;;;;;;4986654;28;20273;-78
2021/03/08 10:29:58;;;;;;;125.68;66.00;;;4.20;99.90;;;;;;4976212;28;20228;-78
2021/03/08 10:32:26;;;;;;;129.25;60.97;;;4.30;99.90;;;;;;4981243;28;20522;-78
2021/03/08 10:34:52;;;;;;;112.57;62.38;;;4.30;99.90;;;;;;4995740;28;20193;-77
2021/03/08 10:37:20;;;;;;;112.80;56.20;;;4.30;99.90;;;;;;4989481;28;20194;-76
2021/03/08 10:39:51;;;;;;;115.47;58.42;;;4.30;99.90;;;;;;4976563;28;20202;-78
2021/03/08 10:42:23;;;;;;;101.50;55.30;;;4.40;99.90;;;;;;4981485;28;20206;-78
2021/03/08 10:44:50;;;;;;;120.38;59.65;;;4.60;99.90;;;;;;4982982;28;20194;-79
2021/03/08 10:47:17;;;;;;;109.72;63.17;;;4.70;99.90;;;;;;4994015;28;20189;-90
2021/03/08 10:49:49;;;;;;;130.20;57.95;;;4.70;99.90;;;;;;5009954;28;20209;-90
2021/03/08 10:52:15;;;;;;;113.47;57.95;;;4.80;99.90;;;;;;4994766;28;20213;-90
2021/03/08 10:54:45;;;;;;;114.60;59.90;;;5.00;99.90;;;;;;5012783;28;20268;-92
2021/03/08 10:57:11;;;;;;;105.28;58.45;;;5.20;99.90;;;;;;4983075;28;20217;-92
2021/03/08 10:59:47;;;;;;;98.72;54.53;;;5.30;99.90;;;;;;4965060;28;20323;-90
2021/03/08 11:02:16;;;;;;;85.57;52.70;;;5.40;99.90;;;;;;4991077;28;20274;-93
2021/03/08 11:04:45;;;;;;;92.15;47.53;;;5.40;99.90;;;;;;4994281;28;20198;-92
2021/03/08 11:07:14;;;;;;;85.80;50.22;;;5.50;99.90;;;;;;4996717;28;20198;-93
2021/03/08 11:09:45;;;;;;;83.32;47.65;;;5.40;99.90;;;;;;5005035;28;20288;-92
2021/03/08 11:12:20;;;;;;;78.20;44.83;;;5.50;99.90;;;;;;5003115;28;20229;-92
2021/03/08 11:14:52;;;;;;;79.18;46.80;;;5.50;99.90;;;;;;4989086;28;20196;-91
2021/03/08 11:17:32;;;;;;;79.03;43.63;;;5.50;99.90;;;;;;5007779;28;20212;-93
2021/03/08 11:20:14;;;;;;;90.20;48.22;;;5.40;99.90;;;;;;5010126;28;20182;-90
2021/03/08 11:22:57;;;;;;;79.60;48.58;;;5.40;99.90;;;;;;5017032;28;20186;-91
2021/03/08 11:25:39;;;;;;;101.85;49.00;;;5.30;99.90;;;;;;5005956;28;20281;-92
2021/03/08 11:28:08;;;;;;;104.10;50.47;;;5.30;99.90;;;;;;5003945;28;20193;-92
2021/03/08 11:30:35;;;;;;;90.97;48.10;;;5.40;99.90;;;;;;4998980;28;20217;-90
2021/03/08 11:33:11;;;;;;;115.93;55.13;;;5.40;99.90;;;;;;4966580;28;20198;-89
2021/03/08 11:35:38;;;;;;;114.30;56.65;;;5.30;99.90;;;;;;4992488;28;20193;-89
2021/03/08 11:38:11;;;;;;;111.50;60.58;;;5.30;99.90;;;;;;4995529;28;20277;-89
2021/03/08 11:40:43;;;;;;;113.40;58.53;;;5.30;99.90;;;;;;5002651;28;20252;-89
2021/03/08 11:43:11;;;;;;;99.63;55.40;;;5.40;99.90;;;;;;5001917;28;20225;-90
2021/03/08 11:45:39;;;;;;;102.20;51.13;;;5.50;99.90;;;;;;4995420;28;20212;-91
2021/03/08 11:48:06;;;;;;;120.80;64.63;;;5.70;99.90;;;;;;4999728;28;20266;-92
2021/03/08 11:50:37;;;;;;;104.30;56.42;;;5.70;99.90;;;;;;4988950;28;20186;-92
2021/03/08 11:53:07;;;;;;;116.97;65.65;;;5.70;99.90;;;;;;5007216;28;20304;-92
2021/03/08 11:55:36;;;;;;;121.82;59.17;;;5.60;99.90;;;;;;5002752;28;20550;-90
2021/03/08 11:58:03;;;;;;;132.05;65.55;;;5.70;99.90;;;;;;4966730;28;20215;-92
2021/03/08 12:00:30;;;;;;;132.05;69.63;;;5.80;99.90;;;;;;4983163;28;20221;-93
2021/03/08 12:02:56;;;;;;;113.13;62.50;;;6.00;99.90;;;;;;4984122;28;20198;-91
2021/03/08 12:05:23;;;;;;;118.25;63.60;;;6.20;99.90;;;;;;4985592;28;20228;-91
2021/03/08 12:07:49;;;;;;;123.70;65.80;;;6.30;99.90;;;;;;5001053;28;20212;-91
2021/03/08 12:10:17;;;;;;;100.53;59.65;;;6.40;99.90;;;;;;4998541;28;20205;-91
2021/03/08 12:12:44;;;;;;;101.22;54.33;;;6.40;99.90;;;;;;4999984;28;20218;-91
2021/03/08 12:15:12;;;;;;;114.00;55.13;;;6.40;99.90;;;;;;4999030;28;20272;-91
2021/03/08 12:17:39;;;;;;;95.93;56.40;;;6.30;99.90;;;;;;4980382;28;20250;-93
2021/03/08 12:20:09;;;;;;;108.57;59.17;;;6.20;99.90;;;;;;4982136;28;20206;-93
2021/03/08 12:25:15;;;;;;;123.32;65.78;;;6.00;99.90;;;;;;5527057;22;20721;-91
2021/03/08 12:27:43;;;;;;;129.15;63.65;;;5.80;99.90;;;;;;4987452;28;20662;-92
2021/03/08 12:30:14;;;;;;;122.35;63.55;;;5.70;99.90;;;;;;4997507;28;20175;-91
2021/03/08 12:32:42;;;;;;;132.18;66.30;;;5.60;99.90;;;;;;5001639;28;20178;-91
2021/03/08 12:42:37;;;;;;;115.30;63.22;;;5.50;99.90;;;;;;4978499;28;20202;-93
2021/03/08 12:45:08;;;;;;;121.70;63.83;;;5.50;99.90;;;;;;4979124;28;20203;-90
2021/03/08 12:47:35;;;;;;;133.18;68.80;;;5.60;99.90;;;;;;5004651;28;20653;-91
2021/03/08 12:53:06;;;;;;;129.05;72.05;;;5.60;99.90;;;;;;5000642;28;20201;-91
2021/03/08 12:55:32;;;;;;;123.07;61.85;;;5.60;99.90;;;;;;4985839;28;20221;-92
2021/03/08 12:57:59;;;;;;;143.60;67.95;;;5.60;99.90;;;;;;4984127;28;20206;-93
2021/03/08 13:00:27;;;;;;;128.10;73.25;;;5.80;99.90;;;;;;4987474;28;20282;-92